sensor_id;sensor_type;location;lat;lon;timestamp;P1;durP1;ratioP1;P2;durP2;ratioP2
61471;SDS011;47337;54.068;12.114;2023-02-21T00:01:38;2.17;;;0.47;;
61471;SDS011;47337;54.068;12.114;2023-02-21T00:04:22;2.47;;;0.57;;
61471;SDS011;47337;54.068;12.114;2023-02-21T00:07:08;1.65;;;0.43;;
61471;SDS011;47337;54.068;12.114;2023-02-21T00:09:52;6.05;;;0.60;;
61471;SDS011;47337;54.068;12.114;2023-02-21T00:12:39;4.32;;;0.73;;
61471;SDS011;47337;54.068;12.114;2023-02-21T00:15:23;1.42;;;0.40;;
61471;SDS011;47337;54.068;12.114;2023-02-21T00:18:06;2.90;;;0.73;;
61471;SDS011;47337;54.068;12.114;2023-02-21T00:20:50;5.53;;;0.80;;
61471;SDS011;47337;54.068;12.114;2023-02-21T00:23:37;2.75;;;0.60;;
61471;SDS011;47337;54.068;12.114;2023-02-21T00:26:21;3.65;;;1.00;;
61471;SDS011;47337;54.068;12.114;2023-02-21T00:29:05;3.42;;;0.75;;
61471;SDS011;47337;54.068;12.114;2023-02-21T00:31:50;2.75;;;0.60;;
61471;SDS011;47337;54.068;12.114;2023-02-21T00:34:35;2.30;;;0.57;;
61471;SDS011;47337;54.068;12.114;2023-02-21T00:37:20;6.25;;;0.60;;
61471;SDS011;47337;54.068;12.114;2023-02-21T00:40:04;2.78;;;0.50;;
61471;SDS011;47337;54.068;12.114;2023-02-21T00:42:48;3.80;;;0.43;;
61471;SDS011;47337;54.068;12.114;2023-02-21T00:45:32;3.53;;;0.73;;
61471;SDS011;47337;54.068;12.114;2023-02-21T00:48:20;3.05;;;0.68;;
61471;SDS011;47337;54.068;12.114;2023-02-21T00:51:05;4.28;;;0.70;;
61471;SDS011;47337;54.068;12.114;2023-02-21T00:53:49;1.38;;;0.50;;
61471;SDS011;47337;54.068;12.114;2023-02-21T00:56:35;4.60;;;0.63;;
61471;SDS011;47337;54.068;12.114;2023-02-21T00:59:19;4.30;;;0.60;;
61471;SDS011;47337;54.068;12.114;2023-02-21T01:02:06;4.07;;;0.95;;
61471;SDS011;47337;54.068;12.114;2023-02-21T01:04:50;8.35;;;0.70;;
61471;SDS011;47337;54.068;12.114;2023-02-21T01:07:38;7.13;;;1.25;;
61471;SDS011;47337;54.068;12.114;2023-02-21T01:10:23;2.75;;;0.63;;
61471;SDS011;47337;54.068;12.114;2023-02-21T01:13:09;5.82;;;1.02;;
61471;SDS011;47337;54.068;12.114;2023-02-21T01:15:56;6.43;;;0.82;;
61471;SDS011;47337;54.068;12.114;2023-02-21T01:18:42;6.72;;;1.17;;
61471;SDS011;47337;54.068;12.114;2023-02-21T01:21:26;4.40;;;1.00;;
61471;SDS011;47337;54.068;12.114;2023-02-21T01:24:13;6.75;;;0.95;;
61471;SDS011;47337;54.068;12.114;2023-02-21T01:26:58;6.72;;;0.93;;
61471;SDS011;47337;54.068;12.114;2023-02-21T01:29:43;4.93;;;1.05;;
61471;SDS011;47337;54.068;12.114;2023-02-21T01:32:27;9.07;;;1.63;;
61471;SDS011;47337;54.068;12.114;2023-02-21T01:35:11;4.78;;;0.70;;
61471;SDS011;47337;54.068;12.114;2023-02-21T01:37:57;5.18;;;0.70;;
61471;SDS011;47337;54.068;12.114;2023-02-21T01:40:41;6.25;;;0.70;;
61471;SDS011;47337;54.068;12.114;2023-02-21T01:43:26;5.28;;;0.90;;
61471;SDS011;47337;54.068;12.114;2023-02-21T01:46:18;7.93;;;0.95;;
61471;SDS011;47337;54.068;12.114;2023-02-21T01:49:13;4.90;;;1.00;;
61471;SDS011;47337;54.068;12.114;2023-02-21T01:51:59;6.97;;;0.80;;
61471;SDS011;47337;54.068;12.114;2023-02-21T01:54:46;4.75;;;0.80;;
61471;SDS011;47337;54.068;12.114;2023-02-21T01:57:34;6.22;;;1.10;;
61471;SDS011;47337;54.068;12.114;2023-02-21T02:00:18;4.97;;;0.63;;
61471;SDS011;47337;54.068;12.114;2023-02-21T02:03:07;9.63;;;1.33;;
61471;SDS011;47337;54.068;12.114;2023-02-21T02:06:00;5.25;;;1.00;;
61471;SDS011;47337;54.068;12.114;2023-02-21T02:08:57;8.43;;;1.00;;
61471;SDS011;47337;54.068;12.114;2023-02-21T02:20:08;7.10;;;1.17;;
61471;SDS011;47337;54.068;12.114;2023-02-21T02:39:47;11.82;;;1.67;;
61471;SDS011;47337;54.068;12.114;2023-02-21T02:48:14;10.43;;;1.70;;
61471;SDS011;47337;54.068;12.114;2023-02-21T02:50:46;6.85;;;1.83;;
61471;SDS011;47337;54.068;12.114;2023-02-21T02:53:16;7.13;;;1.48;;
61471;SDS011;47337;54.068;12.114;2023-02-21T02:56:03;4.67;;;1.50;;
61471;SDS011;47337;54.068;12.114;2023-02-21T02:58:46;8.45;;;1.27;;
61471;SDS011;47337;54.068;12.114;2023-02-21T03:06:39;13.02;;;2.13;;
61471;SDS011;47337;54.068;12.114;2023-02-21T03:09:25;5.35;;;1.45;;
61471;SDS011;47337;54.068;12.114;2023-02-21T03:14:49;7.93;;;1.58;;
61471;SDS011;47337;54.068;12.114;2023-02-21T03:17:23;12.88;;;1.90;;
61471;SDS011;47337;54.068;12.114;2023-02-21T03:19:52;13.88;;;2.22;;
61471;SDS011;47337;54.068;12.114;2023-02-21T03:22:23;6.28;;;1.55;;
61471;SDS011;47337;54.068;12.114;2023-02-21T03:24:55;9.57;;;2.10;;
61471;SDS011;47337;54.068;12.114;2023-02-21T03:27:22;8.75;;;1.75;;
61471;SDS011;47337;54.068;12.114;2023-02-21T03:29:53;11.48;;;3.17;;
61471;SDS011;47337;54.068;12.114;2023-02-21T03:32:23;9.98;;;2.35;;
61471;SDS011;47337;54.068;12.114;2023-02-21T03:34:52;15.52;;;1.98;;
61471;SDS011;47337;54.068;12.114;2023-02-21T03:40:10;12.07;;;1.88;;
61471;SDS011;47337;54.068;12.114;2023-02-21T03:42:41;8.18;;;1.95;;
61471;SDS011;47337;54.068;12.114;2023-02-21T03:45:07;13.65;;;2.22;;
61471;SDS011;47337;54.068;12.114;2023-02-21T03:47:35;10.55;;;1.70;;
61471;SDS011;47337;54.068;12.114;2023-02-21T03:50:00;8.02;;;2.33;;
61471;SDS011;47337;54.068;12.114;2023-02-21T03:52:26;11.80;;;1.80;;
61471;SDS011;47337;54.068;12.114;2023-02-21T03:54:52;8.07;;;2.20;;
61471;SDS011;47337;54.068;12.114;2023-02-21T03:57:17;12.45;;;2.35;;
61471;SDS011;47337;54.068;12.114;2023-02-21T03:59:45;12.95;;;2.33;;
61471;SDS011;47337;54.068;12.114;2023-02-21T04:02:10;8.05;;;1.92;;
61471;SDS011;47337;54.068;12.114;2023-02-21T04:04:35;10.10;;;2.08;;
61471;SDS011;47337;54.068;12.114;2023-02-21T04:07:01;11.35;;;1.70;;
61471;SDS011;47337;54.068;12.114;2023-02-21T04:09:28;10.55;;;2.10;;
61471;SDS011;47337;54.068;12.114;2023-02-21T04:11:54;10.23;;;2.15;;
61471;SDS011;47337;54.068;12.114;2023-02-21T04:14:19;9.88;;;1.70;;
61471;SDS011;47337;54.068;12.114;2023-02-21T04:16:45;12.05;;;2.05;;
61471;SDS011;47337;54.068;12.114;2023-02-21T04:19:10;10.98;;;1.95;;
61471;SDS011;47337;54.068;12.114;2023-02-21T04:21:36;13.35;;;2.35;;
61471;SDS011;47337;54.068;12.114;2023-02-21T04:24:01;11.98;;;2.15;;
61471;SDS011;47337;54.068;12.114;2023-02-21T04:26:26;12.93;;;1.83;;
61471;SDS011;47337;54.068;12.114;2023-02-21T04:28:54;16.85;;;2.92;;
61471;SDS011;47337;54.068;12.114;2023-02-21T04:31:20;10.77;;;2.10;;
61471;SDS011;47337;54.068;12.114;2023-02-21T04:33:46;14.48;;;2.00;;
61471;SDS011;47337;54.068;12.114;2023-02-21T04:36:12;11.45;;;2.75;;
61471;SDS011;47337;54.068;12.114;2023-02-21T04:38:38;10.20;;;2.15;;
61471;SDS011;47337;54.068;12.114;2023-02-21T04:41:04;10.82;;;2.60;;
61471;SDS011;47337;54.068;12.114;2023-02-21T04:43:30;12.15;;;2.42;;
61471;SDS011;47337;54.068;12.114;2023-02-21T04:45:55;20.83;;;3.00;;
61471;SDS011;47337;54.068;12.114;2023-02-21T04:48:21;13.73;;;2.08;;
61471;SDS011;47337;54.068;12.114;2023-02-21T04:50:48;16.17;;;2.15;;
61471;SDS011;47337;54.068;12.114;2023-02-21T04:53:14;11.77;;;1.77;;
61471;SDS011;47337;54.068;12.114;2023-02-21T04:55:39;19.85;;;3.17;;
61471;SDS011;47337;54.068;12.114;2023-02-21T04:58:05;15.90;;;2.53;;
61471;SDS011;47337;54.068;12.114;2023-02-21T05:00:30;11.93;;;2.65;;
61471;SDS011;47337;54.068;12.114;2023-02-21T05:02:56;18.98;;;2.60;;
61471;SDS011;47337;54.068;12.114;2023-02-21T05:05:21;14.40;;;2.72;;
61471;SDS011;47337;54.068;12.114;2023-02-21T05:07:49;8.80;;;2.47;;
61471;SDS011;47337;54.068;12.114;2023-02-21T05:10:15;14.75;;;2.45;;
61471;SDS011;47337;54.068;12.114;2023-02-21T05:12:42;18.60;;;2.88;;
61471;SDS011;47337;54.068;12.114;2023-02-21T05:15:07;13.85;;;2.22;;
61471;SDS011;47337;54.068;12.114;2023-02-21T05:17:36;13.85;;;1.98;;
61471;SDS011;47337;54.068;12.114;2023-02-21T05:20:04;16.13;;;2.33;;
61471;SDS011;47337;54.068;12.114;2023-02-21T05:22:31;11.07;;;2.88;;
61471;SDS011;47337;54.068;12.114;2023-02-21T05:25:02;12.20;;;2.88;;
61471;SDS011;47337;54.068;12.114;2023-02-21T05:27:28;13.30;;;2.78;;
61471;SDS011;47337;54.068;12.114;2023-02-21T05:29:53;16.80;;;3.05;;
61471;SDS011;47337;54.068;12.114;2023-02-21T05:32:21;15.40;;;2.90;;
61471;SDS011;47337;54.068;12.114;2023-02-21T05:34:55;8.88;;;2.30;;
61471;SDS011;47337;54.068;12.114;2023-02-21T05:37:21;17.92;;;3.00;;
61471;SDS011;47337;54.068;12.114;2023-02-21T05:39:46;10.25;;;2.35;;
61471;SDS011;47337;54.068;12.114;2023-02-21T05:42:12;11.25;;;2.67;;
61471;SDS011;47337;54.068;12.114;2023-02-21T05:44:38;12.73;;;2.78;;
61471;SDS011;47337;54.068;12.114;2023-02-21T05:47:03;16.40;;;3.97;;
61471;SDS011;47337;54.068;12.114;2023-02-21T05:49:31;16.45;;;2.67;;
61471;SDS011;47337;54.068;12.114;2023-02-21T05:51:57;12.52;;;2.83;;
61471;SDS011;47337;54.068;12.114;2023-02-21T05:54:22;15.98;;;2.90;;
61471;SDS011;47337;54.068;12.114;2023-02-21T05:56:59;16.00;;;2.63;;
61471;SDS011;47337;54.068;12.114;2023-02-21T06:01:50;15.70;;;2.63;;
61471;SDS011;47337;54.068;12.114;2023-02-21T06:04:16;20.58;;;2.92;;
61471;SDS011;47337;54.068;12.114;2023-02-21T06:06:42;15.73;;;3.25;;
61471;SDS011;47337;54.068;12.114;2023-02-21T06:09:07;17.33;;;2.92;;
61471;SDS011;47337;54.068;12.114;2023-02-21T06:11:34;21.90;;;3.78;;
61471;SDS011;47337;54.068;12.114;2023-02-21T06:14:02;24.85;;;4.15;;
61471;SDS011;47337;54.068;12.114;2023-02-21T06:16:36;18.42;;;3.67;;
61471;SDS011;47337;54.068;12.114;2023-02-21T06:19:02;26.52;;;4.88;;
61471;SDS011;47337;54.068;12.114;2023-02-21T06:21:32;15.65;;;3.25;;
61471;SDS011;47337;54.068;12.114;2023-02-21T06:24:01;15.68;;;3.22;;
61471;SDS011;47337;54.068;12.114;2023-02-21T06:26:28;19.55;;;3.20;;
61471;SDS011;47337;54.068;12.114;2023-02-21T06:28:54;23.85;;;2.70;;
61471;SDS011;47337;54.068;12.114;2023-02-21T06:31:20;16.83;;;3.42;;
61471;SDS011;47337;54.068;12.114;2023-02-21T06:33:46;19.35;;;2.45;;
61471;SDS011;47337;54.068;12.114;2023-02-21T06:36:14;20.45;;;3.55;;
61471;SDS011;47337;54.068;12.114;2023-02-21T06:38:49;17.65;;;3.08;;
61471;SDS011;47337;54.068;12.114;2023-02-21T06:41:20;17.30;;;3.95;;
61471;SDS011;47337;54.068;12.114;2023-02-21T06:43:49;25.40;;;3.42;;
61471;SDS011;47337;54.068;12.114;2023-02-21T06:46:16;22.05;;;4.15;;
61471;SDS011;47337;54.068;12.114;2023-02-21T06:48:43;20.42;;;4.55;;
61471;SDS011;47337;54.068;12.114;2023-02-21T06:51:08;19.85;;;3.58;;
61471;SDS011;47337;54.068;12.114;2023-02-21T06:53:38;25.05;;;3.42;;
61471;SDS011;47337;54.068;12.114;2023-02-21T06:56:07;19.35;;;3.92;;
61471;SDS011;47337;54.068;12.114;2023-02-21T06:58:33;21.00;;;3.50;;
61471;SDS011;47337;54.068;12.114;2023-02-21T07:00:58;16.20;;;3.05;;
61471;SDS011;47337;54.068;12.114;2023-02-21T07:03:24;18.55;;;3.10;;
61471;SDS011;47337;54.068;12.114;2023-02-21T07:05:57;19.27;;;3.58;;
61471;SDS011;47337;54.068;12.114;2023-02-21T07:08:23;24.58;;;4.43;;
61471;SDS011;47337;54.068;12.114;2023-02-21T07:10:50;23.70;;;2.85;;
61471;SDS011;47337;54.068;12.114;2023-02-21T07:13:15;17.25;;;2.95;;
61471;SDS011;47337;54.068;12.114;2023-02-21T07:15:43;19.77;;;3.40;;
61471;SDS011;47337;54.068;12.114;2023-02-21T07:18:11;15.13;;;2.95;;
61471;SDS011;47337;54.068;12.114;2023-02-21T07:20:39;15.13;;;3.25;;
61471;SDS011;47337;54.068;12.114;2023-02-21T07:23:04;20.42;;;3.50;;
61471;SDS011;47337;54.068;12.114;2023-02-21T07:25:32;36.25;;;5.40;;
61471;SDS011;47337;54.068;12.114;2023-02-21T07:27:57;17.27;;;3.40;;
61471;SDS011;47337;54.068;12.114;2023-02-21T07:30:23;17.90;;;2.78;;
61471;SDS011;47337;54.068;12.114;2023-02-21T07:32:48;14.90;;;2.80;;
61471;SDS011;47337;54.068;12.114;2023-02-21T07:35:16;24.50;;;3.65;;
61471;SDS011;47337;54.068;12.114;2023-02-21T07:37:41;18.20;;;3.13;;
61471;SDS011;47337;54.068;12.114;2023-02-21T07:40:07;18.40;;;3.17;;
61471;SDS011;47337;54.068;12.114;2023-02-21T07:42:32;25.75;;;5.20;;
61471;SDS011;47337;54.068;12.114;2023-02-21T07:44:58;20.60;;;3.28;;
61471;SDS011;47337;54.068;12.114;2023-02-21T07:47:24;23.20;;;3.28;;
61471;SDS011;47337;54.068;12.114;2023-02-21T07:49:53;14.02;;;2.88;;
61471;SDS011;47337;54.068;12.114;2023-02-21T07:52:19;19.50;;;3.90;;
61471;SDS011;47337;54.068;12.114;2023-02-21T07:54:47;14.75;;;2.83;;
61471;SDS011;47337;54.068;12.114;2023-02-21T07:57:14;20.77;;;3.35;;
61471;SDS011;47337;54.068;12.114;2023-02-21T07:59:40;20.95;;;3.08;;
61471;SDS011;47337;54.068;12.114;2023-02-21T08:02:06;20.05;;;3.25;;
61471;SDS011;47337;54.068;12.114;2023-02-21T08:04:31;16.55;;;3.05;;
61471;SDS011;47337;54.068;12.114;2023-02-21T08:06:59;23.00;;;3.85;;
61471;SDS011;47337;54.068;12.114;2023-02-21T08:09:30;19.92;;;3.58;;
61471;SDS011;47337;54.068;12.114;2023-02-21T08:11:56;19.80;;;3.67;;
61471;SDS011;47337;54.068;12.114;2023-02-21T08:14:23;15.20;;;3.88;;
61471;SDS011;47337;54.068;12.114;2023-02-21T08:16:49;20.00;;;3.72;;
61471;SDS011;47337;54.068;12.114;2023-02-21T08:19:14;22.02;;;3.47;;
61471;SDS011;47337;54.068;12.114;2023-02-21T08:21:44;21.58;;;2.90;;
61471;SDS011;47337;54.068;12.114;2023-02-21T08:24:11;17.08;;;3.00;;
61471;SDS011;47337;54.068;12.114;2023-02-21T08:26:36;19.50;;;3.50;;
61471;SDS011;47337;54.068;12.114;2023-02-21T08:29:05;21.35;;;3.90;;
61471;SDS011;47337;54.068;12.114;2023-02-21T08:31:37;14.57;;;2.90;;
61471;SDS011;47337;54.068;12.114;2023-02-21T08:34:04;19.77;;;3.28;;
61471;SDS011;47337;54.068;12.114;2023-02-21T08:36:33;19.85;;;3.45;;
61471;SDS011;47337;54.068;12.114;2023-02-21T08:39:00;19.17;;;3.78;;
61471;SDS011;47337;54.068;12.114;2023-02-21T08:41:33;18.70;;;3.40;;
61471;SDS011;47337;54.068;12.114;2023-02-21T08:44:06;19.63;;;3.75;;
61471;SDS011;47337;54.068;12.114;2023-02-21T08:46:32;17.00;;;3.30;;
61471;SDS011;47337;54.068;12.114;2023-02-21T08:48:58;17.92;;;3.78;;
61471;SDS011;47337;54.068;12.114;2023-02-21T08:51:27;20.02;;;3.25;;
61471;SDS011;47337;54.068;12.114;2023-02-21T08:53:54;15.32;;;3.58;;
61471;SDS011;47337;54.068;12.114;2023-02-21T08:56:20;18.23;;;3.45;;
61471;SDS011;47337;54.068;12.114;2023-02-21T08:58:46;18.45;;;3.03;;
61471;SDS011;47337;54.068;12.114;2023-02-21T09:01:11;16.95;;;3.05;;
61471;SDS011;47337;54.068;12.114;2023-02-21T09:03:37;14.65;;;3.13;;
61471;SDS011;47337;54.068;12.114;2023-02-21T09:06:02;19.35;;;3.22;;
61471;SDS011;47337;54.068;12.114;2023-02-21T09:08:30;21.23;;;3.58;;
61471;SDS011;47337;54.068;12.114;2023-02-21T09:11:00;23.60;;;4.18;;
61471;SDS011;47337;54.068;12.114;2023-02-21T09:13:26;22.45;;;3.97;;
61471;SDS011;47337;54.068;12.114;2023-02-21T09:15:57;25.25;;;3.63;;
61471;SDS011;47337;54.068;12.114;2023-02-21T09:18:23;22.55;;;3.75;;
61471;SDS011;47337;54.068;12.114;2023-02-21T09:20:49;25.50;;;4.55;;
61471;SDS011;47337;54.068;12.114;2023-02-21T09:23:23;20.67;;;3.70;;
61471;SDS011;47337;54.068;12.114;2023-02-21T09:25:50;18.75;;;3.08;;
61471;SDS011;47337;54.068;12.114;2023-02-21T09:28:18;20.38;;;3.40;;
61471;SDS011;47337;54.068;12.114;2023-02-21T09:30:44;19.75;;;2.80;;
61471;SDS011;47337;54.068;12.114;2023-02-21T09:33:15;17.52;;;3.50;;
61471;SDS011;47337;54.068;12.114;2023-02-21T09:35:41;28.02;;;4.57;;
61471;SDS011;47337;54.068;12.114;2023-02-21T09:38:07;25.00;;;4.78;;
61471;SDS011;47337;54.068;12.114;2023-02-21T09:43:18;25.27;;;4.28;;
61471;SDS011;47337;54.068;12.114;2023-02-21T09:45:54;22.20;;;4.32;;
61471;SDS011;47337;54.068;12.114;2023-02-21T09:50:58;22.98;;;5.00;;
61471;SDS011;47337;54.068;12.114;2023-02-21T09:53:28;29.98;;;4.68;;
61471;SDS011;47337;54.068;12.114;2023-02-21T09:58:32;20.85;;;4.22;;
61471;SDS011;47337;54.068;12.114;2023-02-21T10:01:05;20.55;;;4.30;;
61471;SDS011;47337;54.068;12.114;2023-02-21T10:03:43;22.85;;;3.67;;
61471;SDS011;47337;54.068;12.114;2023-02-21T10:19:41;22.67;;;3.53;;
61471;SDS011;47337;54.068;12.114;2023-02-21T10:22:13;18.50;;;3.78;;
61471;SDS011;47337;54.068;12.114;2023-02-21T10:24:46;24.08;;;3.97;;
61471;SDS011;47337;54.068;12.114;2023-02-21T10:27:15;21.75;;;3.55;;
61471;SDS011;47337;54.068;12.114;2023-02-21T10:32:16;28.77;;;4.38;;
61471;SDS011;47337;54.068;12.114;2023-02-21T10:34:44;19.23;;;4.07;;
61471;SDS011;47337;54.068;12.114;2023-02-21T10:40:09;26.27;;;5.43;;
61471;SDS011;47337;54.068;12.114;2023-02-21T10:42:47;23.67;;;3.70;;
61471;SDS011;47337;54.068;12.114;2023-02-21T10:45:15;19.10;;;3.63;;
61471;SDS011;47337;54.068;12.114;2023-02-21T10:50:49;27.75;;;5.22;;
61471;SDS011;47337;54.068;12.114;2023-02-21T10:58:36;21.85;;;3.50;;
61471;SDS011;47337;54.068;12.114;2023-02-21T11:04:39;27.75;;;4.22;;
61471;SDS011;47337;54.068;12.114;2023-02-21T11:06:46;27.73;;;4.03;;
61471;SDS011;47337;54.068;12.114;2023-02-21T11:22:34;22.95;;;3.97;;
61471;SDS011;47337;54.068;12.114;2023-02-21T11:25:07;24.25;;;4.75;;
61471;SDS011;47337;54.068;12.114;2023-02-21T11:28:04;16.77;;;4.03;;
61471;SDS011;47337;54.068;12.114;2023-02-21T11:30:37;15.77;;;3.63;;
61471;SDS011;47337;54.068;12.114;2023-02-21T11:33:07;18.70;;;3.70;;
61471;SDS011;47337;54.068;12.114;2023-02-21T11:38:08;24.67;;;4.60;;
61471;SDS011;47337;54.068;12.114;2023-02-21T11:41:00;21.80;;;4.00;;
61471;SDS011;47337;54.068;12.114;2023-02-21T11:43:28;24.20;;;4.82;;
61471;SDS011;47337;54.068;12.114;2023-02-21T11:51:30;21.52;;;3.97;;
61471;SDS011;47337;54.068;12.114;2023-02-21T11:54:00;22.98;;;3.40;;
61471;SDS011;47337;54.068;12.114;2023-02-21T12:07:22;23.33;;;3.97;;
61471;SDS011;47337;54.068;12.114;2023-02-21T12:23:39;22.45;;;4.45;;
61471;SDS011;47337;54.068;12.114;2023-02-21T12:37:18;23.67;;;3.80;;
61471;SDS011;47337;54.068;12.114;2023-02-21T12:40:03;20.40;;;3.22;;
61471;SDS011;47337;54.068;12.114;2023-02-21T12:42:54;18.88;;;3.10;;
61471;SDS011;47337;54.068;12.114;2023-02-21T12:48:43;17.70;;;3.65;;
61471;SDS011;47337;54.068;12.114;2023-02-21T12:51:16;20.95;;;3.30;;
61471;SDS011;47337;54.068;12.114;2023-02-21T12:53:49;22.95;;;3.67;;
61471;SDS011;47337;54.068;12.114;2023-02-21T12:56:23;24.02;;;3.28;;
61471;SDS011;47337;54.068;12.114;2023-02-21T12:58:57;22.13;;;4.18;;
61471;SDS011;47337;54.068;12.114;2023-02-21T13:01:29;22.05;;;4.70;;
61471;SDS011;47337;54.068;12.114;2023-02-21T13:04:15;26.25;;;4.72;;
61471;SDS011;47337;54.068;12.114;2023-02-21T13:07:11;16.92;;;3.05;;
61471;SDS011;47337;54.068;12.114;2023-02-21T13:09:51;20.63;;;3.60;;
61471;SDS011;47337;54.068;12.114;2023-02-21T13:14:55;13.85;;;2.75;;
61471;SDS011;47337;54.068;12.114;2023-02-21T13:17:23;21.00;;;4.70;;
61471;SDS011;47337;54.068;12.114;2023-02-21T13:19:54;16.92;;;3.45;;
61471;SDS011;47337;54.068;12.114;2023-02-21T13:28:30;25.40;;;4.30;;
61471;SDS011;47337;54.068;12.114;2023-02-21T13:31:03;14.85;;;3.30;;
61471;SDS011;47337;54.068;12.114;2023-02-21T13:36:25;14.38;;;2.72;;
61471;SDS011;47337;54.068;12.114;2023-02-21T13:42:00;21.88;;;4.43;;
61471;SDS011;47337;54.068;12.114;2023-02-21T13:44:33;18.38;;;4.28;;
61471;SDS011;47337;54.068;12.114;2023-02-21T13:47:20;19.13;;;3.58;;
61471;SDS011;47337;54.068;12.114;2023-02-21T13:52:23;16.98;;;3.92;;
61471;SDS011;47337;54.068;12.114;2023-02-21T14:02:56;31.52;;;3.75;;
61471;SDS011;47337;54.068;12.114;2023-02-21T14:05:25;17.52;;;3.80;;
61471;SDS011;47337;54.068;12.114;2023-02-21T14:15:59;17.08;;;3.35;;
61471;SDS011;47337;54.068;12.114;2023-02-21T14:18:48;17.52;;;3.20;;
61471;SDS011;47337;54.068;12.114;2023-02-21T14:21:31;24.98;;;3.80;;
61471;SDS011;47337;54.068;12.114;2023-02-21T14:26:53;20.83;;;4.10;;
61471;SDS011;47337;54.068;12.114;2023-02-21T14:29:43;24.25;;;3.65;;
61471;SDS011;47337;54.068;12.114;2023-02-21T14:35:14;14.77;;;3.25;;
61471;SDS011;47337;54.068;12.114;2023-02-21T14:45:53;20.98;;;3.28;;
61471;SDS011;47337;54.068;12.114;2023-02-21T14:59:24;20.17;;;4.07;;
61471;SDS011;47337;54.068;12.114;2023-02-21T15:12:59;18.70;;;3.75;;
61471;SDS011;47337;54.068;12.114;2023-02-21T15:17:55;25.98;;;4.97;;
61471;SDS011;47337;54.068;12.114;2023-02-21T15:20:40;21.25;;;3.88;;
61471;SDS011;47337;54.068;12.114;2023-02-21T15:23:14;16.35;;;3.88;;
61471;SDS011;47337;54.068;12.114;2023-02-21T15:25:43;24.80;;;3.83;;
61471;SDS011;47337;54.068;12.114;2023-02-21T15:28:28;17.77;;;3.80;;
61471;SDS011;47337;54.068;12.114;2023-02-21T15:33:38;18.13;;;3.83;;
61471;SDS011;47337;54.068;12.114;2023-02-21T15:38:42;13.80;;;3.50;;
61471;SDS011;47337;54.068;12.114;2023-02-21T15:44:22;21.55;;;4.15;;
61471;SDS011;47337;54.068;12.114;2023-02-21T15:46:53;21.30;;;3.55;;
61471;SDS011;47337;54.068;12.114;2023-02-21T15:52:03;19.83;;;3.20;;
61471;SDS011;47337;54.068;12.114;2023-02-21T15:54:30;20.95;;;3.50;;
61471;SDS011;47337;54.068;12.114;2023-02-21T15:57:39;18.60;;;3.33;;
61471;SDS011;47337;54.068;12.114;2023-02-21T15:59:48;16.60;;;3.83;;
61471;SDS011;47337;54.068;12.114;2023-02-21T16:02:34;16.90;;;4.03;;
61471;SDS011;47337;54.068;12.114;2023-02-21T16:05:02;22.60;;;4.32;;
61471;SDS011;47337;54.068;12.114;2023-02-21T16:07:33;21.50;;;3.65;;
61471;SDS011;47337;54.068;12.114;2023-02-21T16:10:07;25.45;;;4.38;;
61471;SDS011;47337;54.068;12.114;2023-02-21T16:12:42;19.92;;;3.38;;
61471;SDS011;47337;54.068;12.114;2023-02-21T16:17:42;30.02;;;4.05;;
61471;SDS011;47337;54.068;12.114;2023-02-21T16:22:41;13.25;;;3.22;;
61471;SDS011;47337;54.068;12.114;2023-02-21T16:27:39;18.65;;;3.80;;
61471;SDS011;47337;54.068;12.114;2023-02-21T16:30:26;25.65;;;3.40;;
61471;SDS011;47337;54.068;12.114;2023-02-21T16:32:54;24.45;;;4.25;;
61471;SDS011;47337;54.068;12.114;2023-02-21T16:35:24;17.77;;;4.10;;
61471;SDS011;47337;54.068;12.114;2023-02-21T16:37:55;21.10;;;4.43;;
61471;SDS011;47337;54.068;12.114;2023-02-21T16:42:50;24.45;;;3.15;;
61471;SDS011;47337;54.068;12.114;2023-02-21T16:45:17;18.90;;;3.20;;
61471;SDS011;47337;54.068;12.114;2023-02-21T16:47:43;23.30;;;3.50;;
61471;SDS011;47337;54.068;12.114;2023-02-21T16:50:17;21.60;;;3.80;;
61471;SDS011;47337;54.068;12.114;2023-02-21T16:52:44;21.63;;;3.80;;
61471;SDS011;47337;54.068;12.114;2023-02-21T16:55:13;18.48;;;3.38;;
61471;SDS011;47337;54.068;12.114;2023-02-21T16:57:40;26.30;;;4.20;;
61471;SDS011;47337;54.068;12.114;2023-02-21T17:00:06;17.73;;;3.90;;
61471;SDS011;47337;54.068;12.114;2023-02-21T17:02:32;24.58;;;3.45;;
61471;SDS011;47337;54.068;12.114;2023-02-21T17:04:57;22.65;;;3.65;;
61471;SDS011;47337;54.068;12.114;2023-02-21T17:07:23;19.13;;;3.58;;
61471;SDS011;47337;54.068;12.114;2023-02-21T17:09:49;20.27;;;4.32;;
61471;SDS011;47337;54.068;12.114;2023-02-21T17:12:15;28.77;;;4.10;;
61471;SDS011;47337;54.068;12.114;2023-02-21T17:14:40;29.20;;;5.15;;
61471;SDS011;47337;54.068;12.114;2023-02-21T17:17:05;17.77;;;3.42;;
61471;SDS011;47337;54.068;12.114;2023-02-21T17:19:31;21.27;;;4.80;;
61471;SDS011;47337;54.068;12.114;2023-02-21T17:21:56;20.70;;;3.53;;
61471;SDS011;47337;54.068;12.114;2023-02-21T17:24:24;23.23;;;3.28;;
61471;SDS011;47337;54.068;12.114;2023-02-21T17:26:52;22.05;;;4.32;;
61471;SDS011;47337;54.068;12.114;2023-02-21T17:29:18;18.23;;;3.63;;
61471;SDS011;47337;54.068;12.114;2023-02-21T17:31:44;18.55;;;3.95;;
61471;SDS011;47337;54.068;12.114;2023-02-21T17:34:15;22.48;;;3.78;;
61471;SDS011;47337;54.068;12.114;2023-02-21T17:36:43;21.45;;;4.28;;
61471;SDS011;47337;54.068;12.114;2023-02-21T17:39:14;24.88;;;3.78;;
61471;SDS011;47337;54.068;12.114;2023-02-21T17:41:46;16.42;;;3.50;;
61471;SDS011;47337;54.068;12.114;2023-02-21T17:44:13;16.38;;;4.03;;
61471;SDS011;47337;54.068;12.114;2023-02-21T17:46:39;18.60;;;3.58;;
61471;SDS011;47337;54.068;12.114;2023-02-21T17:49:06;18.73;;;3.72;;
61471;SDS011;47337;54.068;12.114;2023-02-21T17:51:32;24.13;;;3.92;;
61471;SDS011;47337;54.068;12.114;2023-02-21T17:53:59;13.82;;;2.97;;
61471;SDS011;47337;54.068;12.114;2023-02-21T17:56:25;20.17;;;3.88;;
61471;SDS011;47337;54.068;12.114;2023-02-21T17:58:52;21.08;;;3.38;;
61471;SDS011;47337;54.068;12.114;2023-02-21T18:01:19;19.73;;;4.60;;
61471;SDS011;47337;54.068;12.114;2023-02-21T18:03:48;17.58;;;3.53;;
61471;SDS011;47337;54.068;12.114;2023-02-21T18:06:13;28.95;;;4.15;;
61471;SDS011;47337;54.068;12.114;2023-02-21T18:08:39;21.48;;;4.18;;
61471;SDS011;47337;54.068;12.114;2023-02-21T18:11:08;17.15;;;3.58;;
61471;SDS011;47337;54.068;12.114;2023-02-21T18:13:34;39.83;;;4.40;;
61471;SDS011;47337;54.068;12.114;2023-02-21T18:16:00;18.23;;;3.60;;
61471;SDS011;47337;54.068;12.114;2023-02-21T18:18:25;23.77;;;3.15;;
61471;SDS011;47337;54.068;12.114;2023-02-21T18:20:51;20.63;;;3.50;;
61471;SDS011;47337;54.068;12.114;2023-02-21T18:23:16;21.67;;;3.30;;
61471;SDS011;47337;54.068;12.114;2023-02-21T18:25:42;22.60;;;3.85;;
61471;SDS011;47337;54.068;12.114;2023-02-21T18:28:11;23.75;;;3.80;;
61471;SDS011;47337;54.068;12.114;2023-02-21T18:30:36;22.80;;;3.92;;
61471;SDS011;47337;54.068;12.114;2023-02-21T18:33:01;28.63;;;3.63;;
61471;SDS011;47337;54.068;12.114;2023-02-21T18:35:27;18.75;;;3.97;;
61471;SDS011;47337;54.068;12.114;2023-02-21T18:37:52;21.75;;;3.92;;
61471;SDS011;47337;54.068;12.114;2023-02-21T18:40:18;24.48;;;4.15;;
61471;SDS011;47337;54.068;12.114;2023-02-21T18:42:43;18.13;;;3.25;;
61471;SDS011;47337;54.068;12.114;2023-02-21T18:45:10;24.15;;;3.50;;